Time;durP1;ratioP1;P1;durP2;ratioP2;P2;SDS_P1;SDS_P2;PMS_P1;PMS_P2;Temp;Humidity;BMP_temperature;BMP_pressure;BME280_temperature;BME280_humidity;BME280_pressure;Samples;Min_cycle;Max_cycle;Signal;HPM_P1;HPM_P2
2024/01/11 00:00:31;;;;;;;;;;;13.20;2201.60;;;;;;4996820;28;19913;-86
2024/01/11 00:02:57;;;;;;;;;;;13.20;2201.60;;;;;;4995634;28;20399;-84
2024/01/11 00:05:23;;;;;;;;;;;13.20;2201.60;;;;;;4997012;28;19905;-85
2024/01/11 00:07:48;;;;;;;;;;;13.20;2201.60;;;;;;5014636;28;19905;-85
2024/01/11 00:10:16;;;;;;;;;;;13.30;2201.60;;;;;;5014152;28;19905;-86
2024/01/11 00:12:41;;;;;;;;;;;13.20;2201.60;;;;;;4996454;28;19912;-85
2024/01/11 00:15:07;;;;;;;;;;;13.20;2201.60;;;;;;4996613;28;19906;-85
2024/01/11 00:17:33;;;;;;;;;;;13.10;2201.60;;;;;;4993297;28;19909;-85
2024/01/11 00:19:58;;;;;;;;;;;13.20;2201.60;;;;;;4996875;28;19921;-85
2024/01/11 00:22:24;;;;;;;;;;;13.10;2201.60;;;;;;5013653;28;19917;-85
2024/01/11 00:24:50;;;;;;;;;;;13.20;2201.60;;;;;;5014976;28;19906;-85
2024/01/11 00:27:15;;;;;;;;;;;13.20;2201.60;;;;;;5014384;28;19909;-86
2024/01/11 00:29:41;;;;;;;;;;;13.20;2201.60;;;;;;4997017;28;19906;-85
2024/01/11 00:32:06;;;;;;;;;;;13.10;2201.60;;;;;;5014282;28;20375;-85
2024/01/11 00:34:32;;;;;;;;;;;13.10;2201.60;;;;;;4997052;28;19956;-86
2024/01/11 00:36:58;;;;;;;;;;;13.00;2201.60;;;;;;4997501;28;19914;-85
2024/01/11 00:39:24;;;;;;;;;;;13.30;2201.60;;;;;;4997149;28;19906;-85
2024/01/11 00:41:50;;;;;;;;;;;13.40;2201.60;;;;;;4996082;28;19913;-86
2024/01/11 00:44:16;;;;;;;;;;;13.30;2201.60;;;;;;4997519;28;19955;-85
2024/01/11 00:46:42;;;;;;;;;;;13.30;2201.60;;;;;;4996972;28;20291;-86
2024/01/11 00:49:08;;;;;;;;;;;13.20;2201.60;;;;;;4993598;28;19917;-85
2024/01/11 00:51:33;;;;;;;;;;;13.10;2201.60;;;;;;4997190;28;19906;-85
2024/01/11 00:53:59;;;;;;;;;;;13.10;2201.60;;;;;;4996329;28;19912;-86
2024/01/11 00:56:24;;;;;;;;;;;13.00;2201.60;;;;;;4996723;28;19906;-85
2024/01/11 00:58:50;;;;;;;;;;;13.20;2201.60;;;;;;4997264;28;20322;-85
2024/01/11 01:01:15;;;;;;;;;;;13.10;2201.60;;;;;;4995920;28;19914;-86
2024/01/11 01:03:41;;;;;;;;;;;13.00;2201.60;;;;;;4993535;28;19928;-85
2024/01/11 01:06:07;;;;;;;;;;;13.00;2201.60;;;;;;4993755;28;19910;-86
2024/01/11 01:08:32;;;;;;;;;;;13.00;2201.60;;;;;;4994826;28;19906;-85
2024/01/11 01:10:58;;;;;;;;;;;13.00;2201.60;;;;;;4997265;28;19910;-85
2024/01/11 01:13:23;;;;;;;;;;;12.90;2201.60;;;;;;4998051;28;20279;-84
2024/01/11 01:15:49;;;;;;;;;;;13.00;2201.60;;;;;;5000652;28;19999;-83
2024/01/11 01:18:14;;;;;;;;;;;13.00;2201.60;;;;;;4999932;28;19906;-85
2024/01/11 01:20:40;;;;;;;;;;;13.00;2201.60;;;;;;5000356;28;19914;-85
2024/01/11 01:23:06;;;;;;;;;;;13.10;2201.60;;;;;;5000465;28;20387;-85
2024/01/11 01:25:32;;;;;;;;;;;13.10;2201.60;;;;;;4997163;28;19905;-86
2024/01/11 01:27:59;;;;;;;;;;;13.00;2201.60;;;;;;5000554;28;19916;-86
2024/01/11 01:30:24;;;;;;;;;;;13.10;2201.60;;;;;;5013290;28;19912;-86
2024/01/11 01:32:50;;;;;;;;;;;13.10;2201.60;;;;;;5000056;28;19944;-86
2024/01/11 01:35:15;;;;;;;;;;;13.30;2201.60;;;;;;4999144;28;20000;-85
2024/01/11 01:37:41;;;;;;;;;;;13.30;2201.60;;;;;;4999852;28;19912;-86
2024/01/11 01:40:07;;;;;;;;;;;13.40;2201.60;;;;;;4987119;28;19921;-86
2024/01/11 01:42:33;;;;;;;;;;;13.30;2201.60;;;;;;4987706;28;19912;-84
2024/01/11 01:44:59;;;;;;;;;;;13.30;2201.60;;;;;;4999392;28;20000;-86
2024/01/11 01:47:25;;;;;;;;;;;13.60;2201.60;;;;;;4999610;28;19960;-85
2024/01/11 01:49:51;;;;;;;;;;;13.70;2201.60;;;;;;4999081;28;19905;-86
2024/01/11 01:52:16;;;;;;;;;;;13.60;2201.60;;;;;;4999956;28;19955;-85
2024/01/11 01:54:42;;;;;;;;;;;13.60;2201.60;;;;;;4999760;28;19906;-87
2024/01/11 01:57:08;;;;;;;;;;;13.50;2201.60;;;;;;5000015;28;19910;-85
2024/01/11 01:59:34;;;;;;;;;;;13.60;2201.60;;;;;;4999421;28;19937;-85
2024/01/11 02:02:00;;;;;;;;;;;13.50;2201.60;;;;;;5009004;28;19964;-86
2024/01/11 02:04:26;;;;;;;;;;;13.50;2201.60;;;;;;4999069;28;20260;-86
2024/01/11 02:06:53;;;;;;;;;;;13.50;2201.60;;;;;;4999303;28;19909;-86
2024/01/11 02:09:18;;;;;;;;;;;13.60;2201.60;;;;;;4999482;28;19909;-85
2024/01/11 02:11:44;;;;;;;;;;;13.50;2201.60;;;;;;4999424;28;20282;-86
2024/01/11 02:14:10;;;;;;;;;;;13.50;2201.60;;;;;;4999632;28;19960;-86
2024/01/11 02:16:36;;;;;;;;;;;13.50;2201.60;;;;;;4999712;28;19949;-86
2024/01/11 02:19:02;;;;;;;;;;;13.50;2201.60;;;;;;4999114;28;19905;-85
2024/01/11 02:21:28;;;;;;;;;;;13.40;2201.60;;;;;;4985041;28;19945;-86
2024/01/11 02:24:04;;;;;;;;;;;13.30;2201.60;;;;;;4999711;28;19960;-86
2024/01/11 02:26:29;;;;;;;;;;;13.20;2201.60;;;;;;4999847;28;19913;-85
2024/01/11 02:28:55;;;;;;;;;;;13.40;2201.60;;;;;;5000165;28;20376;-84
2024/01/11 02:31:20;;;;;;;;;;;13.30;2201.60;;;;;;5018269;28;19905;-85
2024/01/11 02:33:47;;;;;;;;;;;13.30;2201.60;;;;;;5018550;28;19909;-85
2024/01/11 02:36:13;;;;;;;;;;;13.30;2201.60;;;;;;5040591;28;19894;-85
2024/01/11 02:38:39;;;;;;;;;;;13.40;2201.60;;;;;;5001795;28;19913;-86
2024/01/11 02:41:05;;;;;;;;;;;13.60;2201.60;;;;;;5010558;28;19917;-85
2024/01/11 02:43:30;;;;;;;;;;;13.50;2201.60;;;;;;4999033;28;20429;-84
2024/01/11 02:45:58;;;;;;;;;;;13.30;2201.60;;;;;;5004832;28;19906;-85
2024/01/11 02:48:27;;;;;;;;;;;13.30;2201.60;;;;;;4998721;28;20006;-85
2024/01/11 02:50:53;;;;;;;;;;;13.40;2201.60;;;;;;4998684;28;20283;-85
2024/01/11 02:53:18;;;;;;;;;;;13.20;2201.60;;;;;;4998453;28;19916;-86
2024/01/11 02:55:44;;;;;;;;;;;13.40;2201.60;;;;;;5015081;28;19968;-85
2024/01/11 02:58:09;;;;;;;;;;;13.50;2201.60;;;;;;4998537;28;19905;-86
2024/01/11 03:00:35;;;;;;;;;;;13.60;2201.60;;;;;;4997977;28;20417;-86
2024/01/11 03:03:01;;;;;;;;;;;13.60;2201.60;;;;;;4998259;28;19913;-85
2024/01/11 03:05:26;;;;;;;;;;;13.60;2201.60;;;;;;4998223;28;19921;-85
2024/01/11 03:07:52;;;;;;;;;;;13.60;2201.60;;;;;;4998189;28;19960;-86
2024/01/11 03:10:18;;;;;;;;;;;38.40;2201.60;;;;;;4998424;28;19916;-85
2024/01/11 03:12:44;;;;;;;;;;;13.60;2201.60;;;;;;4998390;28;19912;-85
2024/01/11 03:15:09;;;;;;;;;;;38.60;2201.60;;;;;;4998247;28;19912;-85
2024/01/11 03:17:35;;;;;;;;;;;38.70;2201.60;;;;;;4998703;28;20341;-85
2024/01/11 03:20:01;;;;;;;;;;;38.80;2201.60;;;;;;4997786;28;20401;-86
2024/01/11 03:22:26;;;;;;;;;;;38.60;2201.60;;;;;;4998208;28;20398;-86
2024/01/11 03:24:52;;;;;;;;;;;39.20;2201.60;;;;;;4998354;28;19906;-85
2024/01/11 03:27:18;;;;;;;;;;;39.00;2201.60;;;;;;4991339;28;20056;-87
2024/01/11 03:29:43;;;;;;;;;;;38.90;2201.60;;;;;;5009206;28;19909;-86
2024/01/11 03:32:12;;;;;;;;;;;38.70;2201.60;;;;;;4997632;28;20342;-85
2024/01/11 03:34:38;;;;;;;;;;;38.70;2201.60;;;;;;4997873;28;19913;-86
2024/01/11 03:37:03;;;;;;;;;;;38.60;2201.60;;;;;;4998059;28;19913;-86
2024/01/11 03:39:29;;;;;;;;;;;38.50;2201.60;;;;;;4997792;28;19956;-85
2024/01/11 03:41:54;;;;;;;;;;;38.40;2201.60;;;;;;4997855;28;19913;-86
2024/01/11 03:44:20;;;;;;;;;;;38.40;2201.60;;;;;;4997818;28;19905;-85
2024/01/11 03:46:46;;;;;;;;;;;38.90;2201.60;;;;;;4997885;28;19912;-86
2024/01/11 03:49:12;;;;;;;;;;;38.70;2201.60;;;;;;4998024;28;20003;-86
2024/01/11 03:51:37;;;;;;;;;;;38.70;2201.60;;;;;;4997524;28;19905;-86
2024/01/11 03:54:03;;;;;;;;;;;39.00;2201.60;;;;;;4994370;28;19912;-86
2024/01/11 03:56:29;;;;;;;;;;;39.00;2201.60;;;;;;4998144;28;19905;-86
2024/01/11 03:58:55;;;;;;;;;;;39.00;2201.60;;;;;;5015144;28;19909;-86
2024/01/11 04:01:20;;;;;;;;;;;39.10;2201.60;;;;;;4997487;28;20383;-86
2024/01/11 04:03:46;;;;;;;;;;;39.20;2201.60;;;;;;4997528;28;19909;-86
2024/01/11 04:06:21;;;;;;;;;;;39.20;2201.60;;;;;;4997956;28;19912;-87
2024/01/11 04:08:47;;;;;;;;;;;64.00;2201.60;;;;;;4997595;28;19913;-87
2024/01/11 04:11:13;;;;;;;;;;;39.20;2201.60;;;;;;4997797;28;19910;-86
2024/01/11 04:13:39;;;;;;;;;;;39.30;2201.60;;;;;;4997907;28;19909;-86
2024/01/11 04:16:05;;;;;;;;;;;39.30;2201.60;;;;;;4989837;28;19905;-87
2024/01/11 04:18:31;;;;;;;;;;;39.10;2201.60;;;;;;4992450;28;20351;-87
2024/01/11 04:20:56;;;;;;;;;;;39.10;2201.60;;;;;;4997379;28;19913;-87
2024/01/11 04:23:22;;;;;;;;;;;39.10;2201.60;;;;;;5013742;28;19976;-84
2024/01/11 04:25:47;;;;;;;;;;;39.10;2201.60;;;;;;4985557;28;19909;-85
2024/01/11 04:28:13;;;;;;;;;;;38.90;2201.60;;;;;;4997287;28;19912;-86
2024/01/11 04:30:39;;;;;;;;;;;39.20;2201.60;;;;;;4997304;28;19959;-86
2024/01/11 04:33:04;;;;;;;;;;;39.30;2201.60;;;;;;4997193;28;19968;-85
2024/01/11 04:35:30;;;;;;;;;;;39.10;2201.60;;;;;;4997642;28;19905;-86
2024/01/11 04:37:55;;;;;;;;;;;38.90;2201.60;;;;;;4995320;28;19909;-87
2024/01/11 04:40:21;;;;;;;;;;;39.00;2201.60;;;;;;4997471;28;20291;-85
2024/01/11 04:42:47;;;;;;;;;;;39.10;2201.60;;;;;;4997388;28;19984;-86
2024/01/11 04:45:12;;;;;;;;;;;38.90;2201.60;;;;;;5000398;28;20367;-85
2024/01/11 04:47:38;;;;;;;;;;;38.90;2201.60;;;;;;5000393;28;19976;-83
2024/01/11 04:50:04;;;;;;;;;;;38.80;2201.60;;;;;;5001285;28;19952;-86
2024/01/11 04:52:30;;;;;;;;;;;38.80;2201.60;;;;;;5000612;28;19912;-87
2024/01/11 04:54:55;;;;;;;;;;;38.80;2201.60;;;;;;5001164;28;19905;-87
2024/01/11 04:57:21;;;;;;;;;;;38.80;2201.60;;;;;;5000454;28;19906;-85
2024/01/11 04:59:46;;;;;;;;;;;38.80;2201.60;;;;;;5001269;28;19906;-83
2024/01/11 05:02:12;;;;;;;;;;;39.10;2201.60;;;;;;5017664;28;19918;-86
2024/01/11 05:04:37;;;;;;;;;;;38.90;2201.60;;;;;;5000604;28;19917;-86
2024/01/11 05:07:03;;;;;;;;;;;38.90;2201.60;;;;;;5000588;28;20047;-85
2024/01/11 05:09:29;;;;;;;;;;;38.70;2201.60;;;;;;5000644;28;19905;-84
2024/01/11 05:11:55;;;;;;;;;;;38.70;2201.60;;;;;;5000724;28;19905;-86
2024/01/11 05:14:20;;;;;;;;;;;38.70;2201.60;;;;;;5017737;28;19906;-86
2024/01/11 05:16:46;;;;;;;;;;;38.80;2201.60;;;;;;5000485;28;19905;-87
2024/01/11 05:19:12;;;;;;;;;;;38.70;2201.60;;;;;;5000541;28;19937;-84
2024/01/11 05:21:37;;;;;;;;;;;38.80;2201.60;;;;;;4999735;28;19917;-85
2024/01/11 05:24:03;;;;;;;;;;;38.80;2201.60;;;;;;5000553;28;19928;-86
2024/01/11 05:26:28;;;;;;;;;;;38.60;2201.60;;;;;;5000522;28;19909;-86
2024/01/11 05:28:54;;;;;;;;;;;38.60;2201.60;;;;;;5000876;28;19905;-84
2024/01/11 05:31:20;;;;;;;;;;;38.60;2201.60;;;;;;5000030;28;19968;-85
2024/01/11 05:33:46;;;;;;;;;;;38.70;2201.60;;;;;;5000500;28;19910;-86
2024/01/11 05:36:12;;;;;;;;;;;38.50;2201.60;;;;;;5000046;28;19905;-85
2024/01/11 05:38:38;;;;;;;;;;;38.40;2201.60;;;;;;5004670;28;19912;-84
2024/01/11 05:41:04;;;;;;;;;;;13.60;2201.60;;;;;;4999999;28;19913;-85
2024/01/11 05:43:29;;;;;;;;;;;13.70;2201.60;;;;;;5000172;28;19913;-86
2024/01/11 05:45:55;;;;;;;;;;;13.50;2201.60;;;;;;5009138;28;19913;-84
2024/01/11 05:48:21;;;;;;;;;;;13.70;2201.60;;;;;;4999279;28;20274;-86
2024/01/11 05:50:46;;;;;;;;;;;13.60;2201.60;;;;;;4996908;28;20360;-86
2024/01/11 05:53:12;;;;;;;;;;;13.50;2201.60;;;;;;5015687;28;19992;-85
2024/01/11 05:55:38;;;;;;;;;;;13.50;2201.60;;;;;;4999991;28;19970;-83
2024/01/11 05:58:04;;;;;;;;;;;13.50;2201.60;;;;;;5004589;28;19912;-80
2024/01/11 06:00:30;;;;;;;;;;;13.60;2201.60;;;;;;5019705;28;19917;-81
2024/01/11 06:02:55;;;;;;;;;;;13.50;2201.60;;;;;;5018866;28;19939;-84
2024/01/11 06:05:21;;;;;;;;;;;13.60;2201.60;;;;;;5000378;28;20359;-85
2024/01/11 06:07:47;;;;;;;;;;;13.70;2201.60;;;;;;4999362;28;19905;-84
2024/01/11 06:10:14;;;;;;;;;;;13.70;2201.60;;;;;;4999561;28;19996;-85
2024/01/11 06:12:40;;;;;;;;;;;13.70;2201.60;;;;;;4999639;28;19909;-85
2024/01/11 06:15:07;;;;;;;;;;;13.60;2201.60;;;;;;4999516;28;19905;-84
2024/01/11 06:17:32;;;;;;;;;;;13.40;2201.60;;;;;;4998705;28;19963;-87
2024/01/11 06:19:58;;;;;;;;;;;13.40;2201.60;;;;;;4998831;28;19913;-85
2024/01/11 06:22:23;;;;;;;;;;;13.50;2201.60;;;;;;4998268;28;19952;-84
2024/01/11 06:24:49;;;;;;;;;;;13.40;2201.60;;;;;;4999076;28;19905;-86
2024/01/11 06:27:15;;;;;;;;;;;13.30;2201.60;;;;;;4998146;28;19909;-86
2024/01/11 06:29:40;;;;;;;;;;;13.30;2201.60;;;;;;4996637;28;19909;-88
2024/01/11 06:32:07;;;;;;;;;;;13.30;2201.60;;;;;;4998424;28;20383;-91
2024/01/11 06:34:34;;;;;;;;;;;13.40;2201.60;;;;;;4998284;28;20389;-92
2024/01/11 06:37:00;;;;;;;;;;;13.40;2201.60;;;;;;4998615;28;19987;-85
2024/01/11 06:39:25;;;;;;;;;;;13.40;2201.60;;;;;;4998168;28;20359;-87
2024/01/11 06:41:51;;;;;;;;;;;13.50;2201.60;;;;;;4997689;28;20359;-88
2024/01/11 06:44:17;;;;;;;;;;;13.40;2201.60;;;;;;4998566;28;19905;-89
2024/01/11 06:46:43;;;;;;;;;;;13.50;2201.60;;;;;;4999217;28;19933;-90
2024/01/11 06:49:09;;;;;;;;;;;13.70;2201.60;;;;;;4997852;28;19920;-86
2024/01/11 06:51:34;;;;;;;;;;;13.60;2201.60;;;;;;4997606;28;19905;-86
2024/01/11 06:54:01;;;;;;;;;;;13.50;2201.60;;;;;;4999594;28;20366;-87
2024/01/11 06:56:27;;;;;;;;;;;13.40;2201.60;;;;;;4998316;28;19906;-86
2024/01/11 06:58:52;;;;;;;;;;;13.50;2201.60;;;;;;4998244;28;19956;-88
2024/01/11 07:01:18;;;;;;;;;;;38.40;2201.60;;;;;;4998518;28;20011;-84
2024/01/11 07:03:44;;;;;;;;;;;38.50;2201.60;;;;;;4997656;28;19992;-86
2024/01/11 07:06:10;;;;;;;;;;;38.70;2201.60;;;;;;4997589;28;19906;-87
2024/01/11 07:08:35;;;;;;;;;;;38.70;2201.60;;;;;;4997747;28;19980;-85
2024/01/11 07:11:04;;;;;;;;;;;38.50;2201.60;;;;;;4997155;28;20351;-88
2024/01/11 07:13:31;;;;;;;;;;;38.60;2201.60;;;;;;4997979;28;19929;-86
2024/01/11 07:15:57;;;;;;;;;;;13.60;2201.60;;;;;;4998255;28;20005;-86
2024/01/11 07:18:23;;;;;;;;;;;38.70;2201.60;;;;;;4998346;28;19909;-89
2024/01/11 07:20:50;;;;;;;;;;;38.80;2201.60;;;;;;4997806;28;20283;-87
2024/01/11 07:23:15;;;;;;;;;;;38.80;2201.60;;;;;;4997764;28;19909;-88
2024/01/11 07:25:41;;;;;;;;;;;38.80;2201.60;;;;;;4988980;28;19952;-76
2024/01/11 07:28:07;;;;;;;;;;;38.80;2201.60;;;;;;5013085;28;19912;-89
2024/01/11 07:30:33;;;;;;;;;;;38.60;2201.60;;;;;;4997546;28;19905;-89
2024/01/11 07:32:58;;;;;;;;;;;38.60;2201.60;;;;;;4996385;28;19917;-85
2024/01/11 07:35:24;;;;;;;;;;;38.50;2201.60;;;;;;5020287;28;19906;-83
2024/01/11 07:37:50;;;;;;;;;;;38.70;2201.60;;;;;;4996654;28;19917;-79
2024/01/11 07:40:16;;;;;;;;;;;38.60;2201.60;;;;;;4996867;28;19913;-83
2024/01/11 07:42:42;;;;;;;;;;;38.80;2201.60;;;;;;4997351;28;19914;-80
2024/01/11 07:45:10;;;;;;;;;;;38.70;2201.60;;;;;;4997346;28;19906;-85
2024/01/11 07:47:37;;;;;;;;;;;38.90;2201.60;;;;;;5003396;28;19928;-85
2024/01/11 07:50:03;;;;;;;;;;;38.80;2201.60;;;;;;4997328;28;19906;-84
2024/01/11 07:52:29;;;;;;;;;;;38.80;2201.60;;;;;;4996806;28;19932;-86
2024/01/11 07:54:55;;;;;;;;;;;38.90;2201.60;;;;;;4997460;28;20347;-86
2024/01/11 07:57:20;;;;;;;;;;;38.90;2201.60;;;;;;4996967;28;19913;-88
2024/01/11 07:59:46;;;;;;;;;;;39.10;2201.60;;;;;;5013569;28;19951;-87
2024/01/11 08:02:11;;;;;;;;;;;38.90;2201.60;;;;;;4996684;28;20386;-82
2024/01/11 08:04:38;;;;;;;;;;;38.90;2201.60;;;;;;4998034;28;20008;-86
2024/01/11 08:07:05;;;;;;;;;;;38.90;2201.60;;;;;;4996490;28;19905;-76
2024/01/11 08:09:31;;;;;;;;;;;38.80;2201.60;;;;;;4996383;28;19956;-81
2024/01/11 08:11:56;;;;;;;;;;;39.00;2201.60;;;;;;5001931;28;19969;-81
2024/01/11 08:14:22;;;;;;;;;;;39.30;2201.60;;;;;;4995940;28;19917;-80
2024/01/11 08:16:48;;;;;;;;;;;39.10;2201.60;;;;;;4997508;28;19909;-80
2024/01/11 08:19:14;;;;;;;;;;;39.00;2201.60;;;;;;4991747;28;19972;-84
2024/01/11 08:21:41;;;;;;;;;;;39.10;2201.60;;;;;;4996625;28;19921;-78
2024/01/11 08:24:07;;;;;;;;;;;38.80;2201.60;;;;;;4996423;28;19905;-80
2024/01/11 08:26:33;;;;;;;;;;;38.70;2201.60;;;;;;4996589;28;20314;-85
2024/01/11 08:28:59;;;;;;;;;;;38.80;2201.60;;;;;;4993124;28;19918;-84
2024/01/11 08:31:24;;;;;;;;;;;39.00;2201.60;;;;;;4991255;28;19967;-85
2024/01/11 08:33:50;;;;;;;;;;;39.00;2201.60;;;;;;4996372;28;20371;-84
2024/01/11 08:36:16;;;;;;;;;;;39.30;2201.60;;;;;;4995783;28;19910;-86
2024/01/11 08:38:42;;;;;;;;;;;39.20;2201.60;;;;;;4996678;28;19909;-85
2024/01/11 08:41:07;;;;;;;;;;;39.10;2201.60;;;;;;4997126;28;19914;-82
2024/01/11 08:43:33;;;;;;;;;;;38.80;2201.60;;;;;;4997276;28;19906;-83
2024/01/11 08:45:59;;;;;;;;;;;38.90;2201.60;;;;;;4997149;28;19944;-77
2024/01/11 08:48:24;;;;;;;;;;;38.70;2201.60;;;;;;4996685;28;19906;-80
2024/01/11 08:50:50;;;;;;;;;;;38.70;2201.60;;;;;;4985393;28;19956;-77
2024/01/11 08:53:16;;;;;;;;;;;38.50;2201.60;;;;;;4994986;28;19905;-83
2024/01/11 08:55:42;;;;;;;;;;;38.50;2201.60;;;;;;5013403;28;19905;-80
2024/01/11 08:58:08;;;;;;;;;;;38.70;2201.60;;;;;;4996260;28;19912;-83
2024/01/11 09:00:33;;;;;;;;;;;39.00;2201.60;;;;;;5013956;28;19964;-80
2024/01/11 09:02:59;;;;;;;;;;;39.00;2201.60;;;;;;5013354;28;19937;-80
2024/01/11 09:05:25;;;;;;;;;;;38.80;2201.60;;;;;;5014327;28;19912;-83
2024/01/11 09:07:50;;;;;;;;;;;38.60;2201.60;;;;;;5012816;28;19909;-84
2024/01/11 09:10:16;;;;;;;;;;;38.60;2201.60;;;;;;5014620;28;20421;-83
2024/01/11 09:12:42;;;;;;;;;;;38.40;2201.60;;;;;;4999387;28;19910;-83
2024/01/11 09:15:07;;;;;;;;;;;38.60;2201.60;;;;;;5024285;28;19905;-83
2024/01/11 09:17:33;;;;;;;;;;;38.70;2201.60;;;;;;5014288;28;19905;-84
2024/01/11 09:19:59;;;;;;;;;;;38.70;2201.60;;;;;;5018525;28;19916;-80
2024/01/11 09:22:24;;;;;;;;;;;38.60;2201.60;;;;;;5019829;28;19984;-80
2024/01/11 09:24:50;;;;;;;;;;;38.40;2201.60;;;;;;5034073;28;19955;-83
2024/01/11 09:27:16;;;;;;;;;;;38.40;2201.60;;;;;;5002528;28;19912;-83
2024/01/11 09:29:45;;;;;;;;;;;38.60;2201.60;;;;;;4996876;28;19905;-83
2024/01/11 09:32:10;;;;;;;;;;;38.50;2201.60;;;;;;5000097;28;19976;-82
2024/01/11 09:34:36;;;;;;;;;;;38.40;2201.60;;;;;;5000434;28;19905;-83
2024/01/11 09:37:02;;;;;;;;;;;38.50;2201.60;;;;;;5000086;28;20279;-83
2024/01/11 09:39:27;;;;;;;;;;;13.70;2201.60;;;;;;4999953;28;20036;-83
2024/01/11 09:42:13;;;;;;;;;;;13.70;2201.60;;;;;;4999533;28;19913;-82
2024/01/11 09:44:40;;;;;;;;;;;13.70;2201.60;;;;;;4999322;28;20390;-87
2024/01/11 09:47:07;;;;;;;;;;;13.70;2201.60;;;;;;4999609;28;19912;-85
2024/01/11 09:49:35;;;;;;;;;;;13.60;2201.60;;;;;;4999482;28;19912;-84
2024/01/11 09:52:02;;;;;;;;;;;13.50;2201.60;;;;;;4999851;28;19906;-82
2024/01/11 09:54:28;;;;;;;;;;;13.40;2201.60;;;;;;4999409;28;20375;-81
2024/01/11 09:56:54;;;;;;;;;;;38.40;2201.60;;;;;;5016899;28;19905;-82
2024/01/11 09:59:22;;;;;;;;;;;13.50;2201.60;;;;;;4999344;28;19956;-81
2024/01/11 10:01:48;;;;;;;;;;;13.30;2201.60;;;;;;4998933;28;19921;-79
2024/01/11 10:04:15;;;;;;;;;;;13.50;2201.60;;;;;;4998211;28;19905;-79
2024/01/11 10:06:41;;;;;;;;;;;13.40;2201.60;;;;;;4998858;28;19906;-77
2024/01/11 10:09:07;;;;;;;;;;;13.50;2201.60;;;;;;5016023;28;19932;-80
2024/01/11 10:11:34;;;;;;;;;;;13.40;2201.60;;;;;;5016295;28;20374;-77
2024/01/11 10:14:01;;;;;;;;;;;13.30;2201.60;;;;;;4998573;28;19905;-75
2024/01/11 10:16:27;;;;;;;;;;;13.20;2201.60;;;;;;5015853;28;20040;-87
2024/01/11 10:18:57;;;;;;;;;;;13.40;2201.60;;;;;;4998788;28;20282;-79
2024/01/11 10:21:23;;;;;;;;;;;13.40;2201.60;;;;;;4998147;28;19924;-76
2024/01/11 10:23:49;;;;;;;;;;;13.30;2201.60;;;;;;5015850;28;19916;-76
2024/01/11 10:26:15;;;;;;;;;;;13.40;2201.60;;;;;;4998725;28;19967;-77
2024/01/11 10:28:44;;;;;;;;;;;13.10;2201.60;;;;;;4998255;28;19909;-78
2024/01/11 10:31:09;;;;;;;;;;;13.50;2201.60;;;;;;4998112;28;20374;-77
2024/01/11 10:33:35;;;;;;;;;;;13.50;2201.60;;;;;;4998117;28;19905;-77
2024/01/11 10:36:01;;;;;;;;;;;13.40;2201.60;;;;;;4995406;28;19905;-77
2024/01/11 10:38:29;;;;;;;;;;;13.30;2201.60;;;;;;4998090;28;19905;-76
2024/01/11 10:40:55;;;;;;;;;;;13.30;2201.60;;;;;;4997912;28;19913;-79
2024/01/11 10:43:22;;;;;;;;;;;13.30;2201.60;;;;;;5015697;28;19906;-83
2024/01/11 10:45:53;;;;;;;;;;;13.30;2201.60;;;;;;4998582;28;19915;-82
2024/01/11 10:48:20;;;;;;;;;;;13.20;2201.60;;;;;;4995111;28;20047;-79
2024/01/11 10:50:49;;;;;;;;;;;13.20;2201.60;;;;;;4998154;28;20354;-78
2024/01/11 10:53:28;;;;;;;;;;;13.30;2201.60;;;;;;4998157;28;20024;-82
2024/01/11 10:55:55;;;;;;;;;;;13.30;2201.60;;;;;;4998090;28;19951;-80
2024/01/11 10:58:22;;;;;;;;;;;13.30;2201.60;;;;;;5015363;28;19905;-76
2024/01/11 11:00:48;;;;;;;;;;;13.20;2201.60;;;;;;4997856;28;19922;-82
2024/01/11 11:03:15;;;;;;;;;;;13.10;2201.60;;;;;;4997780;28;19944;-77
2024/01/11 11:05:42;;;;;;;;;;;13.30;2201.60;;;;;;4998028;28;19913;-84
2024/01/11 11:08:08;;;;;;;;;;;13.20;2201.60;;;;;;5015297;28;19906;-82
2024/01/11 11:10:34;;;;;;;;;;;13.20;2201.60;;;;;;4997737;28;19909;-80
2024/01/11 11:13:00;;;;;;;;;;;13.20;2201.60;;;;;;4997823;28;19906;-83
2024/01/11 11:15:28;;;;;;;;;;;13.50;2201.60;;;;;;4997852;28;19905;-84
2024/01/11 11:17:54;;;;;;;;;;;13.50;2201.60;;;;;;4997632;28;19905;-81
2024/01/11 11:20:20;;;;;;;;;;;13.60;2201.60;;;;;;4997117;28;19906;-81
2024/01/11 11:23:04;;;;;;;;;;;13.50;2201.60;;;;;;4997710;28;19947;-84
2024/01/11 11:25:30;;;;;;;;;;;13.60;2201.60;;;;;;4997489;28;19905;-78
2024/01/11 11:27:56;;;;;;;;;;;13.50;2201.60;;;;;;5014916;28;19948;-80
2024/01/11 11:30:21;;;;;;;;;;;13.20;2201.60;;;;;;4997556;28;19956;-83
2024/01/11 11:32:47;;;;;;;;;;;12.90;2201.60;;;;;;5015087;28;19913;-80
2024/01/11 11:35:13;;;;;;;;;;;12.90;2201.60;;;;;;4997577;28;19948;-79
2024/01/11 11:37:39;;;;;;;;;;;0.00;2201.60;;;;;;5014637;28;19917;-77
2024/01/11 11:40:10;;;;;;;;;;;13.00;2201.60;;;;;;4996563;28;20379;-78
2024/01/11 11:42:36;;;;;;;;;;;13.00;2201.60;;;;;;5014795;28;19909;-79
2024/01/11 11:45:02;;;;;;;;;;;0.10;2201.60;;;;;;4997912;28;19905;-82
2024/01/11 11:47:35;;;;;;;;;;;0.00;2201.60;;;;;;4997030;28;20003;-81
2024/01/11 11:50:10;;;;;;;;;;;0.00;2201.60;;;;;;5015158;28;20371;-79
2024/01/11 11:52:37;;;;;;;;;;;0.20;2201.60;;;;;;4996557;28;19905;-78
2024/01/11 11:55:03;;;;;;;;;;;13.00;2201.60;;;;;;5013863;28;20449;-82
2024/01/11 11:57:29;;;;;;;;;;;13.10;2201.60;;;;;;4996874;28;19909;-81
2024/01/11 11:59:58;;;;;;;;;;;13.30;2201.60;;;;;;5014361;28;19905;-78
2024/01/11 12:02:25;;;;;;;;;;;13.20;2201.60;;;;;;5013945;28;20020;-78
2024/01/11 12:04:50;;;;;;;;;;;13.10;2201.60;;;;;;4996919;28;20423;-83
2024/01/11 12:07:16;;;;;;;;;;;13.20;2201.60;;;;;;4996310;28;19948;-81
2024/01/11 12:09:42;;;;;;;;;;;12.90;2201.60;;;;;;4996546;28;19956;-79
2024/01/11 12:12:08;;;;;;;;;;;13.00;2201.60;;;;;;4996713;28;19906;-80
2024/01/11 12:14:34;;;;;;;;;;;0.00;2201.60;;;;;;4996431;28;19944;-77
2024/01/11 12:16:59;;;;;;;;;;;12.90;2201.60;;;;;;5013881;28;19909;-83
2024/01/11 12:19:25;;;;;;;;;;;13.20;2201.60;;;;;;4996503;28;19912;-80
2024/01/11 12:21:51;;;;;;;;;;;13.70;2201.60;;;;;;4996186;28;19924;-77
2024/01/11 12:24:16;;;;;;;;;;;13.30;2201.60;;;;;;5014551;28;19953;-82
2024/01/11 12:26:42;;;;;;;;;;;13.30;2201.60;;;;;;5014524;28;20007;-84
2024/01/11 12:29:09;;;;;;;;;;;13.20;2201.60;;;;;;4994107;28;20271;-81
2024/01/11 12:31:35;;;;;;;;;;;13.30;2201.60;;;;;;4994125;28;19921;-80
2024/01/11 12:34:01;;;;;;;;;;;13.50;2201.60;;;;;;4997593;28;19905;-82
2024/01/11 12:36:28;;;;;;;;;;;13.40;2201.60;;;;;;4998787;28;19905;-81
2024/01/11 12:38:53;;;;;;;;;;;13.30;2201.60;;;;;;5019721;28;19965;-80
2024/01/11 12:41:21;;;;;;;;;;;13.50;2201.60;;;;;;5015963;28;19917;-85
2024/01/11 12:43:46;;;;;;;;;;;13.60;2201.60;;;;;;4998151;28;19973;-81
2024/01/11 12:46:12;;;;;;;;;;;13.60;2201.60;;;;;;5010695;28;19941;-83
2024/01/11 12:48:38;;;;;;;;;;;13.60;2201.60;;;;;;4997103;28;19905;-78
2024/01/11 12:51:04;;;;;;;;;;;38.40;2201.60;;;;;;4995449;28;19914;-82
2024/01/11 12:53:30;;;;;;;;;;;13.70;2201.60;;;;;;4996972;28;20398;-83
2024/01/11 12:56:10;;;;;;;;;;;38.50;2201.60;;;;;;5012806;28;19916;-82
2024/01/11 12:58:39;;;;;;;;;;;38.70;2201.60;;;;;;5013753;28;19909;-78
2024/01/11 13:01:07;;;;;;;;;;;38.90;2201.60;;;;;;4995346;28;19918;-79
2024/01/11 13:03:33;;;;;;;;;;;39.00;2201.60;;;;;;5004036;28;19959;-87
2024/01/11 13:05:59;;;;;;;;;;;39.20;2201.60;;;;;;4997177;28;19921;-78
2024/01/11 13:08:25;;;;;;;;;;;39.20;2201.60;;;;;;5016484;28;19917;-81
2024/01/11 13:10:50;;;;;;;;;;;64.00;2201.60;;;;;;5017518;28;20040;-80
2024/01/11 13:13:16;;;;;;;;;;;64.10;2201.60;;;;;;4996682;28;19909;-83
2024/01/11 13:15:41;;;;;;;;;;;64.00;2201.60;;;;;;4999693;28;19932;-82
2024/01/11 13:18:07;;;;;;;;;;;39.30;2201.60;;;;;;4999349;28;19952;-84
2024/01/11 13:20:33;;;;;;;;;;;39.20;2201.60;;;;;;4999853;28;19913;-83
2024/01/11 13:23:11;;;;;;;;;;;64.00;2201.60;;;;;;5016482;28;20407;-84
2024/01/11 13:25:37;;;;;;;;;;;64.10;2201.60;;;;;;4992938;28;19909;-83
2024/01/11 13:28:02;;;;;;;;;;;64.10;2201.60;;;;;;5000096;28;19912;-84
2024/01/11 13:30:28;;;;;;;;;;;64.20;2201.60;;;;;;4995298;28;19917;-85
2024/01/11 13:32:53;;;;;;;;;;;64.10;2201.60;;;;;;5012019;28;19913;-75
2024/01/11 13:35:20;;;;;;;;;;;64.20;2201.60;;;;;;5017403;28;19916;-81
2024/01/11 13:37:45;;;;;;;;;;;64.30;2201.60;;;;;;4999948;28;20252;-82
2024/01/11 13:40:13;;;;;;;;;;;64.30;2201.60;;;;;;4997408;28;19912;-79
2024/01/11 13:42:39;;;;;;;;;;;64.20;2201.60;;;;;;4999431;28;19910;-83
2024/01/11 13:45:08;;;;;;;;;;;64.10;2201.60;;;;;;4999112;28;20370;-80